sensor_id;sensor_type;location;lat;lon;timestamp;P1;durP1;ratioP1;P2;durP2;ratioP2
15557;SDS011;7880;50.110;9.372;2023-03-01T00:03:32;16.092307692307696;;;8.176923076923076;;
15557;SDS011;7880;50.110;9.372;2023-03-01T00:08:38;18.9076923076923;;;9.876923076923076;;
15557;SDS011;7880;50.110;9.372;2023-03-01T00:13:40;19.16153846153846;;;9.238461538461541;;
15557;SDS011;7880;50.110;9.372;2023-03-01T00:18:44;18.97692307692308;;;9.715384615384616;;
15557;SDS011;7880;50.110;9.372;2023-03-01T00:23:49;14.038461538461537;;;8.900000000000002;;
15557;SDS011;7880;50.110;9.372;2023-03-01T00:28:52;15.03076923076923;;;9.238461538461541;;
15557;SDS011;7880;50.110;9.372;2023-03-01T00:33:58;16.638461538461534;;;9.215384615384616;;
15557;SDS011;7880;50.110;9.372;2023-03-01T00:39:00;19.223076923076924;;;9.5;;
15557;SDS011;7880;50.110;9.372;2023-03-01T00:44:05;12.346153846153848;;;8.27692307692308;;
15557;SDS011;7880;50.110;9.372;2023-03-01T00:49:13;19.16153846153846;;;8.815384615384616;;
15557;SDS011;7880;50.110;9.372;2023-03-01T00:54:28;13.192307692307692;;;8.400000000000002;;
15557;SDS011;7880;50.110;9.372;2023-03-01T00:59:23;15.761538461538455;;;9.115384615384615;;
15557;SDS011;7880;50.110;9.372;2023-03-01T01:04:24;18.507692307692306;;;9.5;;
15557;SDS011;7880;50.110;9.372;2023-03-01T01:09:28;16.238461538461543;;;8.799999999999999;;
15557;SDS011;7880;50.110;9.372;2023-03-01T01:14:37;19.800000000000004;;;9.599999999999998;;
15557;SDS011;7880;50.110;9.372;2023-03-01T01:19:35;15.861538461538467;;;8.700000000000001;;
15557;SDS011;7880;50.110;9.372;2023-03-01T01:24:39;17.569230769230767;;;9.123076923076924;;
15557;SDS011;7880;50.110;9.372;2023-03-01T01:29:47;16.56153846153846;;;8.761538461538462;;
15557;SDS011;7880;50.110;9.372;2023-03-01T01:34:53;18.576923076923073;;;8.599999999999998;;
15557;SDS011;7880;50.110;9.372;2023-03-01T01:39:57;21.515384615384615;;;9.076923076923078;;
15557;SDS011;7880;50.110;9.372;2023-03-01T01:45:34;18.25384615384615;;;9.676923076923076;;
15557;SDS011;7880;50.110;9.372;2023-03-01T01:50:22;15.38461538461538;;;9.323076923076924;;
15557;SDS011;7880;50.110;9.372;2023-03-01T01:55:27;16.82307692307692;;;9.176923076923076;;
15557;SDS011;7880;50.110;9.372;2023-03-01T02:00:30;13.661538461538461;;;8.476923076923075;;
15557;SDS011;7880;50.110;9.372;2023-03-01T02:05:36;16.400000000000002;;;8.376923076923076;;
15557;SDS011;7880;50.110;9.372;2023-03-01T02:10:41;16.084615384615386;;;9.0;;
15557;SDS011;7880;50.110;9.372;2023-03-01T02:15:44;15.223076923076919;;;8.700000000000001;;
15557;SDS011;7880;50.110;9.372;2023-03-01T02:20:49;16.28461538461539;;;9.553846153846154;;
15557;SDS011;7880;50.110;9.372;2023-03-01T02:25:52;19.192307692307693;;;9.700000000000001;;
15557;SDS011;7880;50.110;9.372;2023-03-01T02:32:08;17.0;;;9.338461538461539;;
15557;SDS011;7880;50.110;9.372;2023-03-01T02:36:47;19.592307692307696;;;8.376923076923076;;
15557;SDS011;7880;50.110;9.372;2023-03-01T02:41:53;15.36923076923077;;;8.22307692307692;;
15557;SDS011;7880;50.110;9.372;2023-03-01T02:47:00;13.32307692307692;;;8.56153846153846;;
15557;SDS011;7880;50.110;9.372;2023-03-01T02:52:07;18.800000000000004;;;9.476923076923075;;
15557;SDS011;7880;50.110;9.372;2023-03-01T02:57:05;16.130769230769232;;;8.738461538461538;;
15557;SDS011;7880;50.110;9.372;2023-03-01T03:02:18;16.12307692307693;;;10.153846153846153;;
15557;SDS011;7880;50.110;9.372;2023-03-01T03:07:12;14.538461538461537;;;8.799999999999999;;
15557;SDS011;7880;50.110;9.372;2023-03-01T03:12:16;17.176923076923075;;;8.061538461538461;;
15557;SDS011;7880;50.110;9.372;2023-03-01T03:17:20;14.684615384615382;;;8.799999999999999;;
15557;SDS011;7880;50.110;9.372;2023-03-01T03:22:29;15.800000000000002;;;8.36153846153846;;
15557;SDS011;7880;50.110;9.372;2023-03-01T03:27:27;17.723076923076924;;;8.77692307692308;;
15557;SDS011;7880;50.110;9.372;2023-03-01T03:32:31;19.946153846153837;;;8.83846153846154;;
15557;SDS011;7880;50.110;9.372;2023-03-01T03:38:16;19.86923076923077;;;9.838461538461539;;
15557;SDS011;7880;50.110;9.372;2023-03-01T03:42:58;14.369230769230771;;;8.615384615384615;;
15557;SDS011;7880;50.110;9.372;2023-03-01T03:48:02;17.330769230769224;;;9.238461538461541;;
15557;SDS011;7880;50.110;9.372;2023-03-01T03:53:05;16.846153846153843;;;8.66153846153846;;
15557;SDS011;7880;50.110;9.372;2023-03-01T03:58:08;14.492307692307694;;;9.099999999999998;;
15557;SDS011;7880;50.110;9.372;2023-03-01T04:03:12;21.715384615384615;;;9.069230769230769;;
15557;SDS011;7880;50.110;9.372;2023-03-01T04:08:16;18.092307692307692;;;8.276923076923074;;
15557;SDS011;7880;50.110;9.372;2023-03-01T04:13:26;15.476923076923075;;;8.738461538461538;;
15557;SDS011;7880;50.110;9.372;2023-03-01T04:18:27;15.476923076923075;;;8.238461538461538;;
15557;SDS011;7880;50.110;9.372;2023-03-01T04:23:33;15.800000000000002;;;8.238461538461538;;
15557;SDS011;7880;50.110;9.372;2023-03-01T04:28:37;16.523076923076925;;;8.299999999999999;;
15557;SDS011;7880;50.110;9.372;2023-03-01T04:33:40;16.44615384615384;;;7.938461538461538;;
15557;SDS011;7880;50.110;9.372;2023-03-01T04:38:47;15.623076923076924;;;8.799999999999999;;
15557;SDS011;7880;50.110;9.372;2023-03-01T04:43:51;12.676923076923078;;;8.66153846153846;;
15557;SDS011;7880;50.110;9.372;2023-03-01T04:49:00;14.923076923076927;;;8.261538461538462;;
15557;SDS011;7880;50.110;9.372;2023-03-01T04:54:19;16.07692307692308;;;8.76923076923077;;
15557;SDS011;7880;50.110;9.372;2023-03-01T04:59:05;12.630769230769232;;;7.676923076923076;;
15557;SDS011;7880;50.110;9.372;2023-03-01T05:04:05;16.300000000000004;;;8.66153846153846;;
15557;SDS011;7880;50.110;9.372;2023-03-01T05:09:11;17.43846153846154;;;7.099999999999999;;
15557;SDS011;7880;50.110;9.372;2023-03-01T05:14:14;13.800000000000002;;;8.799999999999999;;
15557;SDS011;7880;50.110;9.372;2023-03-01T05:19:22;14.076923076923077;;;7.938461538461538;;
15557;SDS011;7880;50.110;9.372;2023-03-01T05:24:20;16.72307692307692;;;8.299999999999999;;
15557;SDS011;7880;50.110;9.372;2023-03-01T05:29:27;12.623076923076923;;;7.799999999999998;;
15557;SDS011;7880;50.110;9.372;2023-03-01T05:34:31;12.338461538461539;;;7.599999999999999;;
15557;SDS011;7880;50.110;9.372;2023-03-01T05:39:35;13.576923076923073;;;7.676923076923076;;
15557;SDS011;7880;50.110;9.372;2023-03-01T05:44:44;16.138461538461534;;;8.738461538461538;;
15557;SDS011;7880;50.110;9.372;2023-03-01T05:49:44;15.553846153846157;;;8.561538461538461;;
15557;SDS011;7880;50.110;9.372;2023-03-01T05:54:54;12.838461538461539;;;7.400000000000001;;
15557;SDS011;7880;50.110;9.372;2023-03-01T06:00:03;13.915384615384612;;;8.038461538461537;;
15557;SDS011;7880;50.110;9.372;2023-03-01T06:04:59;15.315384615384618;;;7.938461538461538;;
15557;SDS011;7880;50.110;9.372;2023-03-01T06:10:01;14.38461538461538;;;8.099999999999998;;
15557;SDS011;7880;50.110;9.372;2023-03-01T06:15:13;15.60769230769231;;;8.72307692307692;;
15557;SDS011;7880;50.110;9.372;2023-03-01T06:20:13;15.238461538461545;;;9.376923076923076;;
15557;SDS011;7880;50.110;9.372;2023-03-01T06:25:14;23.23846153846154;;;11.115384615384617;;
15557;SDS011;7880;50.110;9.372;2023-03-01T06:30:18;17.26153846153846;;;8.900000000000002;;
15557;SDS011;7880;50.110;9.372;2023-03-01T06:35:21;19.830769230769228;;;8.599999999999998;;
15557;SDS011;7880;50.110;9.372;2023-03-01T06:40:25;12.838461538461534;;;7.315384615384616;;
15557;SDS011;7880;50.110;9.372;2023-03-01T06:45:32;15.453846153846147;;;8.13846153846154;;
15557;SDS011;7880;50.110;9.372;2023-03-01T06:50:37;15.784615384615384;;;9.26153846153846;;
15557;SDS011;7880;50.110;9.372;2023-03-01T06:55:39;18.161538461538463;;;8.638461538461538;;
15557;SDS011;7880;50.110;9.372;2023-03-01T07:00:43;16.27692307692308;;;9.276923076923081;;
15557;SDS011;7880;50.110;9.372;2023-03-01T07:05:48;19.26923076923077;;;9.26153846153846;;
15557;SDS011;7880;50.110;9.372;2023-03-01T07:10:54;22.392307692307686;;;9.5;;
15557;SDS011;7880;50.110;9.372;2023-03-01T07:15:53;17.599999999999998;;;8.676923076923076;;
15557;SDS011;7880;50.110;9.372;2023-03-01T07:20:57;17.43846153846154;;;10.538461538461537;;
15557;SDS011;7880;50.110;9.372;2023-03-01T07:26:02;20.223076923076924;;;9.076923076923078;;
15557;SDS011;7880;50.110;9.372;2023-03-01T07:31:05;18.223076923076924;;;9.676923076923076;;
15557;SDS011;7880;50.110;9.372;2023-03-01T07:36:08;15.015384615384612;;;8.83846153846154;;
15557;SDS011;7880;50.110;9.372;2023-03-01T07:41:14;18.161538461538463;;;10.138461538461538;;
15557;SDS011;7880;50.110;9.372;2023-03-01T07:46:19;16.876923076923077;;;9.030769230769232;;
15557;SDS011;7880;50.110;9.372;2023-03-01T07:51:24;15.15384615384615;;;8.900000000000002;;
15557;SDS011;7880;50.110;9.372;2023-03-01T07:56:27;12.86923076923077;;;8.099999999999998;;
15557;SDS011;7880;50.110;9.372;2023-03-01T08:01:29;14.076923076923073;;;9.36153846153846;;
15557;SDS011;7880;50.110;9.372;2023-03-01T08:06:20;16.73076923076923;;;9.146153846153844;;
15557;SDS011;7880;50.110;9.372;2023-03-01T08:11:28;14.292307692307693;;;8.892307692307694;;
15557;SDS011;7880;50.110;9.372;2023-03-01T08:16:28;16.538461538461537;;;9.138461538461538;;
15557;SDS011;7880;50.110;9.372;2023-03-01T08:21:34;15.93846153846154;;;9.43846153846154;;
15557;SDS011;7880;50.110;9.372;2023-03-01T08:26:37;17.26153846153846;;;9.299999999999999;;
15557;SDS011;7880;50.110;9.372;2023-03-01T08:31:42;17.62307692307692;;;8.799999999999999;;
15557;SDS011;7880;50.110;9.372;2023-03-01T08:36:51;20.96153846153846;;;9.238461538461541;;
15557;SDS011;7880;50.110;9.372;2023-03-01T08:41:49;14.107692307692304;;;8.93846153846154;;
15557;SDS011;7880;50.110;9.372;2023-03-01T08:46:55;16.33846153846154;;;9.538461538461537;;
15557;SDS011;7880;50.110;9.372;2023-03-01T08:51:57;14.900000000000004;;;8.861538461538462;;
15557;SDS011;7880;50.110;9.372;2023-03-01T08:57:04;15.469230769230773;;;8.799999999999999;;
15557;SDS011;7880;50.110;9.372;2023-03-01T09:02:10;12.86923076923077;;;8.376923076923076;;
15557;SDS011;7880;50.110;9.372;2023-03-01T09:07:10;18.75384615384615;;;10.43846153846154;;
15557;SDS011;7880;50.110;9.372;2023-03-01T09:12:14;17.67692307692308;;;9.238461538461541;;
15557;SDS011;7880;50.110;9.372;2023-03-01T09:17:18;14.67692307692308;;;9.038461538461537;;
15557;SDS011;7880;50.110;9.372;2023-03-01T09:22:22;16.04615384615385;;;9.961538461538463;;
15557;SDS011;7880;50.110;9.372;2023-03-01T09:27:33;16.738461538461543;;;9.276923076923081;;
15557;SDS011;7880;50.110;9.372;2023-03-01T09:32:32;15.361538461538462;;;9.646153846153844;;
15557;SDS011;7880;50.110;9.372;2023-03-01T09:37:35;14.653846153846157;;;9.93846153846154;;
15557;SDS011;7880;50.110;9.372;2023-03-01T09:42:59;16.484615384615388;;;9.799999999999999;;
15557;SDS011;7880;50.110;9.372;2023-03-01T09:48:03;16.21538461538461;;;9.061538461538461;;
15557;SDS011;7880;50.110;9.372;2023-03-01T09:53:06;15.11538461538462;;;9.338461538461539;;
15557;SDS011;7880;50.110;9.372;2023-03-01T09:58:16;17.661538461538463;;;10.400000000000002;;
15557;SDS011;7880;50.110;9.372;2023-03-01T10:03:14;16.138461538461534;;;8.700000000000001;;
15557;SDS011;7880;50.110;9.372;2023-03-01T10:08:25;15.315384615384618;;;8.015384615384615;;
15557;SDS011;7880;50.110;9.372;2023-03-01T10:13:23;13.199999999999998;;;8.099999999999998;;
15557;SDS011;7880;50.110;9.372;2023-03-01T10:18:25;15.82307692307692;;;8.299999999999999;;
15557;SDS011;7880;50.110;9.372;2023-03-01T10:23:29;12.56153846153846;;;7.700000000000002;;
15557;SDS011;7880;50.110;9.372;2023-03-01T10:28:31;14.661538461538461;;;8.038461538461537;;
15557;SDS011;7880;50.110;9.372;2023-03-01T10:33:37;13.738461538461534;;;7.538461538461538;;
15557;SDS011;7880;50.110;9.372;2023-03-01T10:38:47;12.03846153846154;;;6.915384615384612;;
15557;SDS011;7880;50.110;9.372;2023-03-01T10:43:48;15.338461538461537;;;7.599999999999999;;
15557;SDS011;7880;50.110;9.372;2023-03-01T10:48:58;12.23076923076923;;;7.569230769230767;;
15557;SDS011;7880;50.110;9.372;2023-03-01T10:53:53;12.469230769230771;;;7.530769230769229;;
15557;SDS011;7880;50.110;9.372;2023-03-01T10:58:57;10.376923076923076;;;6.138461538461541;;
15557;SDS011;7880;50.110;9.372;2023-03-01T11:04:08;11.576923076923073;;;7.161538461538461;;
15557;SDS011;7880;50.110;9.372;2023-03-01T11:09:13;10.13846153846154;;;6.200000000000002;;
15557;SDS011;7880;50.110;9.372;2023-03-01T11:14:13;14.115384615384611;;;6.738461538461536;;
15557;SDS011;7880;50.110;9.372;2023-03-01T11:19:16;10.5;;;5.6;;
15557;SDS011;7880;50.110;9.372;2023-03-01T11:24:18;10.538461538461538;;;6.1;;
15557;SDS011;7880;50.110;9.372;2023-03-01T11:29:26;10.738461538461536;;;5.799999999999998;;
15557;SDS011;7880;50.110;9.372;2023-03-01T11:34:30;11.207692307692307;;;5.799999999999998;;
15557;SDS011;7880;50.110;9.372;2023-03-01T11:39:31;10.400000000000002;;;5.730769230769231;;
15557;SDS011;7880;50.110;9.372;2023-03-01T11:44:36;10.223076923076924;;;5.6692307692307695;;
15557;SDS011;7880;50.110;9.372;2023-03-01T11:49:49;8.607692307692309;;;5.538461538461541;;
15557;SDS011;7880;50.110;9.372;2023-03-01T11:54:45;8.299999999999999;;;5.4;;
15557;SDS011;7880;50.110;9.372;2023-03-01T11:59:51;11.653846153846153;;;5.93076923076923;;
15557;SDS011;7880;50.110;9.372;2023-03-01T12:04:55;10.599999999999998;;;5.4692307692307685;;
15557;SDS011;7880;50.110;9.372;2023-03-01T12:10:01;9.669230769230769;;;6.200000000000002;;
15557;SDS011;7880;50.110;9.372;2023-03-01T12:15:08;9.061538461538461;;;5.6;;
15557;SDS011;7880;50.110;9.372;2023-03-01T12:20:08;7.730769230769231;;;5.200000000000001;;
15557;SDS011;7880;50.110;9.372;2023-03-01T12:25:14;7.630769230769232;;;5.4;;
15557;SDS011;7880;50.110;9.372;2023-03-01T12:30:19;8.853846153846153;;;5.0076923076923086;;
15557;SDS011;7880;50.110;9.372;2023-03-01T12:35:22;10.299999999999999;;;5.4;;
15557;SDS011;7880;50.110;9.372;2023-03-01T12:40:25;9.692307692307692;;;5.761538461538463;;
15557;SDS011;7880;50.110;9.372;2023-03-01T12:45:34;8.538461538461538;;;5.700000000000002;;
15557;SDS011;7880;50.110;9.372;2023-03-01T12:50:32;8.192307692307693;;;5.5;;
15557;SDS011;7880;50.110;9.372;2023-03-01T12:55:34;10.115384615384615;;;6.030769230769229;;
15557;SDS011;7880;50.110;9.372;2023-03-01T13:00:38;8.469230769230771;;;5.46923076923077;;
15557;SDS011;7880;50.110;9.372;2023-03-01T13:05:56;8.16153846153846;;;5.700000000000002;;
15557;SDS011;7880;50.110;9.372;2023-03-01T13:10:32;13.16153846153846;;;6.52307692307692;;
15557;SDS011;7880;50.110;9.372;2023-03-01T13:15:33;7.5;;;5.4;;
15557;SDS011;7880;50.110;9.372;2023-03-01T13:20:46;7.93076923076923;;;5.630769230769232;;
15557;SDS011;7880;50.110;9.372;2023-03-01T13:26:15;9.469230769230771;;;6.200000000000002;;
15557;SDS011;7880;50.110;9.372;2023-03-01T13:30:56;10.16923076923077;;;5.43076923076923;;
15557;SDS011;7880;50.110;9.372;2023-03-01T13:36:00;8.546153846153844;;;5.130769230769232;;
15557;SDS011;7880;50.110;9.372;2023-03-01T13:41:05;6.292307692307693;;;5.0;;
15557;SDS011;7880;50.110;9.372;2023-03-01T13:48:27;7.599999999999999;;;4.799999999999999;;
15557;SDS011;7880;50.110;9.372;2023-03-01T13:53:33;8.900000000000002;;;4.8999999999999995;;
15557;SDS011;7880;50.110;9.372;2023-03-01T13:58:47;11.66923076923077;;;6.330769230769231;;
15557;SDS011;7880;50.110;9.372;2023-03-01T14:03:47;8.099999999999998;;;4.630769230769232;;
15557;SDS011;7880;50.110;9.372;2023-03-01T14:08:44;6.784615384615386;;;4.361538461538462;;
15557;SDS011;7880;50.110;9.372;2023-03-01T14:13:49;8.83846153846154;;;4.8999999999999995;;
15557;SDS011;7880;50.110;9.372;2023-03-01T14:18:56;8.13846153846154;;;4.869230769230769;;
15557;SDS011;7880;50.110;9.372;2023-03-01T14:23:55;7.36153846153846;;;4.3999999999999995;;
15557;SDS011;7880;50.110;9.372;2023-03-01T14:28:59;6.369230769230768;;;4.269230769230769;;
15557;SDS011;7880;50.110;9.372;2023-03-01T14:34:03;12.16923076923077;;;4.5;;
15557;SDS011;7880;50.110;9.372;2023-03-01T14:39:16;7.299999999999998;;;4.730769230769231;;
15557;SDS011;7880;50.110;9.372;2023-03-01T14:44:27;9.769230769230768;;;5.630769230769232;;
15557;SDS011;7880;50.110;9.372;2023-03-01T14:49:17;11.492307692307692;;;6.530769230769229;;
15557;SDS011;7880;50.110;9.372;2023-03-01T14:54:23;11.599999999999996;;;7.961538461538459;;
15557;SDS011;7880;50.110;9.372;2023-03-01T14:59:25;13.576923076923082;;;7.469230769230771;;
15557;SDS011;7880;50.110;9.372;2023-03-01T15:04:34;18.607692307692307;;;12.8;;
15557;SDS011;7880;50.110;9.372;2023-03-01T15:09:34;11.738461538461536;;;8.469230769230771;;
15557;SDS011;7880;50.110;9.372;2023-03-01T15:14:39;14.038461538461538;;;8.930769230769231;;
15557;SDS011;7880;50.110;9.372;2023-03-01T15:19:46;15.599999999999996;;;9.092307692307692;;
15557;SDS011;7880;50.110;9.372;2023-03-01T15:24:46;14.376923076923076;;;9.669230769230769;;
15557;SDS011;7880;50.110;9.372;2023-03-01T15:29:49;14.530769230769229;;;9.13076923076923;;
15557;SDS011;7880;50.110;9.372;2023-03-01T15:34:53;13.515384615384615;;;9.192307692307692;;
15557;SDS011;7880;50.110;9.372;2023-03-01T15:39:57;13.430769230769233;;;8.492307692307694;;
15557;SDS011;7880;50.110;9.372;2023-03-01T15:45:08;14.823076923076922;;;8.799999999999999;;
15557;SDS011;7880;50.110;9.372;2023-03-01T15:50:11;17.615384615384617;;;8.86923076923077;;
15557;SDS011;7880;50.110;9.372;2023-03-01T15:55:15;14.261538461538464;;;8.76923076923077;;
15557;SDS011;7880;50.110;9.372;2023-03-01T16:00:16;17.607692307692307;;;9.630769230769229;;
15557;SDS011;7880;50.110;9.372;2023-03-01T16:05:23;16.50769230769231;;;9.599999999999998;;
15557;SDS011;7880;50.110;9.372;2023-03-01T16:10:23;18.538461538461537;;;9.400000000000002;;
15557;SDS011;7880;50.110;9.372;2023-03-01T16:15:28;15.230769230769235;;;9.400000000000002;;
15557;SDS011;7880;50.110;9.372;2023-03-01T16:20:31;15.161538461538463;;;9.83076923076923;;
15557;SDS011;7880;50.110;9.372;2023-03-01T16:25:36;13.423076923076918;;;8.969230769230771;;
15557;SDS011;7880;50.110;9.372;2023-03-01T16:30:45;14.238461538461536;;;8.73076923076923;;
15557;SDS011;7880;50.110;9.372;2023-03-01T16:35:53;15.707692307692307;;;10.038461538461538;;
15557;SDS011;7880;50.110;9.372;2023-03-01T16:40:50;17.684615384615384;;;10.930769230769233;;
15557;SDS011;7880;50.110;9.372;2023-03-01T16:45:53;20.861538461538462;;;10.907692307692306;;
15557;SDS011;7880;50.110;9.372;2023-03-01T16:50:58;12.83076923076923;;;8.73076923076923;;
15557;SDS011;7880;50.110;9.372;2023-03-01T16:56:03;19.261538461538457;;;9.799999999999999;;
15557;SDS011;7880;50.110;9.372;2023-03-01T17:01:08;35.5;;;17.492307692307694;;
15557;SDS011;7880;50.110;9.372;2023-03-01T17:06:12;40.15384615384615;;;21.23846153846154;;
15557;SDS011;7880;50.110;9.372;2023-03-01T17:11:18;30.76923076923077;;;16.08461538461538;;
15557;SDS011;7880;50.110;9.372;2023-03-01T17:16:28;14.292307692307693;;;10.030769230769229;;
15557;SDS011;7880;50.110;9.372;2023-03-01T17:21:41;14.63846153846154;;;9.13076923076923;;
15557;SDS011;7880;50.110;9.372;2023-03-01T17:26:30;13.930769230769233;;;9.169230769230769;;
15557;SDS011;7880;50.110;9.372;2023-03-01T17:31:34;10.923076923076918;;;7.330769230769231;;
15557;SDS011;7880;50.110;9.372;2023-03-01T17:36:43;13.00769230769231;;;8.569230769230769;;
15557;SDS011;7880;50.110;9.372;2023-03-01T17:41:43;12.792307692307693;;;7.230769230769231;;
15557;SDS011;7880;50.110;9.372;2023-03-01T17:46:47;16.238461538461532;;;10.099999999999998;;
15557;SDS011;7880;50.110;9.372;2023-03-01T17:51:52;17.599999999999998;;;9.33076923076923;;
15557;SDS011;7880;50.110;9.372;2023-03-01T17:56:58;12.43846153846154;;;8.038461538461537;;
15557;SDS011;7880;50.110;9.372;2023-03-01T18:02:02;13.47692307692308;;;7.799999999999998;;
15557;SDS011;7880;50.110;9.372;2023-03-01T18:07:07;14.300000000000002;;;8.200000000000001;;
15557;SDS011;7880;50.110;9.372;2023-03-01T18:12:15;13.246153846153847;;;8.123076923076924;;
15557;SDS011;7880;50.110;9.372;2023-03-01T18:16:46;26.153846153846146;;;17.24615384615384;;
15557;SDS011;7880;50.110;9.372;2023-03-01T18:22:06;13.669230769230769;;;8.930769230769231;;
15557;SDS011;7880;50.110;9.372;2023-03-01T18:26:57;13.800000000000002;;;8.5;;
15557;SDS011;7880;50.110;9.372;2023-03-01T18:31:58;24.953846153846143;;;13.10769230769231;;
15557;SDS011;7880;50.110;9.372;2023-03-01T18:37:03;18.676923076923078;;;9.815384615384618;;
15557;SDS011;7880;50.110;9.372;2023-03-01T18:42:06;16.507692307692302;;;9.66153846153846;;
15557;SDS011;7880;50.110;9.372;2023-03-01T18:47:10;13.169230769230769;;;8.299999999999999;;
15557;SDS011;7880;50.110;9.372;2023-03-01T18:52:15;14.369230769230771;;;8.369230769230771;;
15557;SDS011;7880;50.110;9.372;2023-03-01T18:57:20;14.707692307692305;;;8.246153846153845;;
15557;SDS011;7880;50.110;9.372;2023-03-01T19:02:28;15.199999999999998;;;7.5384615384615365;;
15557;SDS011;7880;50.110;9.372;2023-03-01T19:07:31;12.49230769230769;;;6.961538461538459;;
15557;SDS011;7880;50.110;9.372;2023-03-01T19:12:35;14.446153846153841;;;8.461538461538463;;
15557;SDS011;7880;50.110;9.372;2023-03-01T19:17:40;13.20769230769231;;;7.6230769230769235;;
15557;SDS011;7880;50.110;9.372;2023-03-01T19:22:47;15.784615384615384;;;8.861538461538462;;
15557;SDS011;7880;50.110;9.372;2023-03-01T19:27:51;14.630769230769232;;;8.515384615384617;;
15557;SDS011;7880;50.110;9.372;2023-03-01T19:33:00;14.415384615384612;;;7.33846153846154;;
15557;SDS011;7880;50.110;9.372;2023-03-01T19:38:02;14.723076923076919;;;7.66153846153846;;
15557;SDS011;7880;50.110;9.372;2023-03-01T19:43:10;13.961538461538463;;;8.799999999999999;;
15557;SDS011;7880;50.110;9.372;2023-03-01T19:48:13;12.5;;;7.299999999999998;;
15557;SDS011;7880;50.110;9.372;2023-03-01T19:53:17;14.307692307692308;;;7.599999999999999;;
15557;SDS011;7880;50.110;9.372;2023-03-01T19:58:23;25.476923076923086;;;7.900000000000001;;
15557;SDS011;7880;50.110;9.372;2023-03-01T20:03:28;16.961538461538463;;;8.538461538461537;;
15557;SDS011;7880;50.110;9.372;2023-03-01T20:08:29;12.738461538461543;;;8.038461538461537;;
15557;SDS011;7880;50.110;9.372;2023-03-01T20:13:32;16.400000000000002;;;8.238461538461538;;
15557;SDS011;7880;50.110;9.372;2023-03-01T20:18:39;18.069230769230767;;;8.599999999999998;;
15557;SDS011;7880;50.110;9.372;2023-03-01T20:23:41;17.184615384615388;;;8.861538461538462;;
15557;SDS011;7880;50.110;9.372;2023-03-01T20:28:45;15.60769230769231;;;7.9615384615384635;;
15557;SDS011;7880;50.110;9.372;2023-03-01T20:33:50;15.461538461538463;;;8.638461538461538;;
15557;SDS011;7880;50.110;9.372;2023-03-01T20:38:53;13.346153846153843;;;7.5;;
15557;SDS011;7880;50.110;9.372;2023-03-01T20:43:59;18.223076923076924;;;8.876923076923076;;
15557;SDS011;7880;50.110;9.372;2023-03-01T20:49:03;17.738461538461543;;;8.13846153846154;;
15557;SDS011;7880;50.110;9.372;2023-03-01T20:54:05;15.400000000000004;;;8.599999999999998;;
15557;SDS011;7880;50.110;9.372;2023-03-01T20:59:09;21.36153846153847;;;11.038461538461537;;
15557;SDS011;7880;50.110;9.372;2023-03-01T21:04:13;18.338461538461537;;;8.976923076923075;;
15557;SDS011;7880;50.110;9.372;2023-03-01T21:09:16;14.838461538461539;;;8.799999999999999;;
15557;SDS011;7880;50.110;9.372;2023-03-01T21:14:22;15.423076923076927;;;8.56153846153846;;
15557;SDS011;7880;50.110;9.372;2023-03-01T21:19:27;16.815384615384616;;;8.261538461538462;;
15557;SDS011;7880;50.110;9.372;2023-03-01T21:24:35;14.869230769230775;;;8.930769230769231;;
15557;SDS011;7880;50.110;9.372;2023-03-01T21:29:37;16.092307692307696;;;8.599999999999998;;
15557;SDS011;7880;50.110;9.372;2023-03-01T21:34:40;17.900000000000002;;;9.738461538461541;;
15557;SDS011;7880;50.110;9.372;2023-03-01T21:39:44;15.538461538461537;;;8.599999999999998;;
15557;SDS011;7880;50.110;9.372;2023-03-01T21:44:48;17.89230769230769;;;9.66153846153846;;
15557;SDS011;7880;50.110;9.372;2023-03-01T21:49:56;17.961538461538463;;;9.700000000000001;;
15557;SDS011;7880;50.110;9.372;2023-03-01T21:54:54;16.807692307692307;;;8.099999999999998;;
15557;SDS011;7880;50.110;9.372;2023-03-01T21:59:57;15.361538461538467;;;8.638461538461538;;
15557;SDS011;7880;50.110;9.372;2023-03-01T22:05:02;18.123076923076926;;;9.715384615384616;;
15557;SDS011;7880;50.110;9.372;2023-03-01T22:10:07;15.161538461538461;;;9.099999999999998;;
15557;SDS011;7880;50.110;9.372;2023-03-01T22:15:18;16.538461538461533;;;9.592307692307692;;
15557;SDS011;7880;50.110;9.372;2023-03-01T22:20:14;18.76153846153846;;;9.076923076923078;;